sensor_id;sensor_type;location;lat;lon;timestamp;P1;durP1;ratioP1;P2;durP2;ratioP2
61638;SDS011;47544;52.484;4.658;2022-12-29T00:00:11;2.60;;;1.30;;
61638;SDS011;47544;52.484;4.658;2022-12-29T00:00:54;3.08;;;1.40;;
61638;SDS011;47544;52.484;4.658;2022-12-29T00:01:22;2.83;;;1.45;;
61638;SDS011;47544;52.484;4.658;2022-12-29T00:02:07;2.67;;;1.27;;
61638;SDS011;47544;52.484;4.658;2022-12-29T00:02:37;3.15;;;1.20;;
61638;SDS011;47544;52.484;4.658;2022-12-29T00:02:53;2.78;;;1.20;;
61638;SDS011;47544;52.484;4.658;2022-12-29T00:03:08;3.15;;;0.95;;
61638;SDS011;47544;52.484;4.658;2022-12-29T00:03:31;3.13;;;1.08;;
61638;SDS011;47544;52.484;4.658;2022-12-29T00:03:52;2.30;;;1.10;;
61638;SDS011;47544;52.484;4.658;2022-12-29T00:04:23;2.30;;;0.98;;
61638;SDS011;47544;52.484;4.658;2022-12-29T00:04:37;3.97;;;1.23;;
61638;SDS011;47544;52.484;4.658;2022-12-29T00:05:19;3.08;;;1.50;;
61638;SDS011;47544;52.484;4.658;2022-12-29T00:05:42;2.95;;;1.30;;
61638;SDS011;47544;52.484;4.658;2022-12-29T00:05:55;2.90;;;1.30;;
61638;SDS011;47544;52.484;4.658;2022-12-29T00:06:51;2.42;;;1.10;;
61638;SDS011;47544;52.484;4.658;2022-12-29T00:07:14;1.85;;;1.02;;
61638;SDS011;47544;52.484;4.658;2022-12-29T00:07:37;2.15;;;1.20;;
61638;SDS011;47544;52.484;4.658;2022-12-29T00:08:05;2.17;;;1.02;;
61638;SDS011;47544;52.484;4.658;2022-12-29T00:08:18;2.60;;;1.15;;
61638;SDS011;47544;52.484;4.658;2022-12-29T00:08:33;3.42;;;1.33;;
61638;SDS011;47544;52.484;4.658;2022-12-29T00:08:56;2.38;;;1.10;;
61638;SDS011;47544;52.484;4.658;2022-12-29T00:09:15;2.28;;;1.10;;
61638;SDS011;47544;52.484;4.658;2022-12-29T00:09:32;2.00;;;0.90;;
61638;SDS011;47544;52.484;4.658;2022-12-29T00:09:53;2.40;;;1.10;;
61638;SDS011;47544;52.484;4.658;2022-12-29T00:10:09;2.65;;;0.95;;
61638;SDS011;47544;52.484;4.658;2022-12-29T00:10:21;2.85;;;1.00;;
61638;SDS011;47544;52.484;4.658;2022-12-29T00:10:32;3.33;;;1.20;;
61638;SDS011;47544;52.484;4.658;2022-12-29T00:11:19;4.88;;;1.30;;
61638;SDS011;47544;52.484;4.658;2022-12-29T00:11:30;5.05;;;1.27;;
61638;SDS011;47544;52.484;4.658;2022-12-29T00:11:48;3.80;;;1.23;;
61638;SDS011;47544;52.484;4.658;2022-12-29T00:12:03;3.35;;;1.40;;
61638;SDS011;47544;52.484;4.658;2022-12-29T00:12:14;2.63;;;1.25;;
61638;SDS011;47544;52.484;4.658;2022-12-29T00:12:27;2.83;;;1.10;;
61638;SDS011;47544;52.484;4.658;2022-12-29T00:13:02;3.50;;;1.33;;
61638;SDS011;47544;52.484;4.658;2022-12-29T00:13:37;2.70;;;1.20;;
61638;SDS011;47544;52.484;4.658;2022-12-29T00:14:10;2.65;;;1.20;;
61638;SDS011;47544;52.484;4.658;2022-12-29T00:14:42;2.75;;;1.25;;
61638;SDS011;47544;52.484;4.658;2022-12-29T00:15:11;2.13;;;0.90;;
61638;SDS011;47544;52.484;4.658;2022-12-29T00:15:43;4.00;;;1.10;;
61638;SDS011;47544;52.484;4.658;2022-12-29T00:15:54;4.63;;;1.20;;
61638;SDS011;47544;52.484;4.658;2022-12-29T00:16:11;3.80;;;1.20;;
61638;SDS011;47544;52.484;4.658;2022-12-29T00:16:22;3.53;;;1.27;;
61638;SDS011;47544;52.484;4.658;2022-12-29T00:16:36;3.35;;;1.17;;
61638;SDS011;47544;52.484;4.658;2022-12-29T00:16:47;2.78;;;1.02;;
61638;SDS011;47544;52.484;4.658;2022-12-29T00:16:58;3.58;;;1.20;;
61638;SDS011;47544;52.484;4.658;2022-12-29T00:17:11;3.75;;;1.33;;
61638;SDS011;47544;52.484;4.658;2022-12-29T00:17:27;3.03;;;1.35;;
61638;SDS011;47544;52.484;4.658;2022-12-29T00:17:39;2.58;;;1.15;;
61638;SDS011;47544;52.484;4.658;2022-12-29T00:17:50;2.10;;;1.00;;
61638;SDS011;47544;52.484;4.658;2022-12-29T00:18:01;2.92;;;1.13;;
61638;SDS011;47544;52.484;4.658;2022-12-29T00:18:12;2.58;;;1.00;;
61638;SDS011;47544;52.484;4.658;2022-12-29T00:18:23;2.67;;;1.10;;
61638;SDS011;47544;52.484;4.658;2022-12-29T00:18:34;2.58;;;1.10;;
61638;SDS011;47544;52.484;4.658;2022-12-29T00:18:45;2.85;;;1.10;;
61638;SDS011;47544;52.484;4.658;2022-12-29T00:18:59;2.40;;;0.90;;
61638;SDS011;47544;52.484;4.658;2022-12-29T00:19:14;2.83;;;1.25;;
61638;SDS011;47544;52.484;4.658;2022-12-29T00:19:40;3.13;;;1.15;;
61638;SDS011;47544;52.484;4.658;2022-12-29T00:20:09;3.55;;;1.10;;
61638;SDS011;47544;52.484;4.658;2022-12-29T00:20:39;2.90;;;1.30;;
61638;SDS011;47544;52.484;4.658;2022-12-29T00:21:08;3.28;;;1.38;;
61638;SDS011;47544;52.484;4.658;2022-12-29T00:21:42;2.03;;;0.98;;
61638;SDS011;47544;52.484;4.658;2022-12-29T00:22:12;3.03;;;1.27;;
61638;SDS011;47544;52.484;4.658;2022-12-29T00:22:42;2.83;;;1.00;;
61638;SDS011;47544;52.484;4.658;2022-12-29T00:23:11;2.10;;;0.80;;
61638;SDS011;47544;52.484;4.658;2022-12-29T00:23:42;2.50;;;1.05;;
61638;SDS011;47544;52.484;4.658;2022-12-29T00:24:26;2.50;;;0.90;;
61638;SDS011;47544;52.484;4.658;2022-12-29T00:24:59;2.85;;;0.98;;
61638;SDS011;47544;52.484;4.658;2022-12-29T00:25:35;2.20;;;1.00;;
61638;SDS011;47544;52.484;4.658;2022-12-29T00:26:09;2.00;;;0.75;;
61638;SDS011;47544;52.484;4.658;2022-12-29T00:26:44;3.70;;;0.80;;
61638;SDS011;47544;52.484;4.658;2022-12-29T00:27:16;3.80;;;1.02;;
61638;SDS011;47544;52.484;4.658;2022-12-29T00:27:45;2.90;;;0.90;;
61638;SDS011;47544;52.484;4.658;2022-12-29T00:28:15;2.13;;;1.08;;
61638;SDS011;47544;52.484;4.658;2022-12-29T00:28:44;2.22;;;0.82;;
61638;SDS011;47544;52.484;4.658;2022-12-29T00:29:16;3.28;;;1.35;;
61638;SDS011;47544;52.484;4.658;2022-12-29T00:29:45;3.05;;;1.27;;
61638;SDS011;47544;52.484;4.658;2022-12-29T00:30:15;2.00;;;1.10;;
61638;SDS011;47544;52.484;4.658;2022-12-29T00:30:45;2.28;;;1.00;;
61638;SDS011;47544;52.484;4.658;2022-12-29T00:31:17;4.15;;;1.65;;
61638;SDS011;47544;52.484;4.658;2022-12-29T00:31:46;4.68;;;1.70;;
61638;SDS011;47544;52.484;4.658;2022-12-29T00:32:16;3.25;;;1.60;;
61638;SDS011;47544;52.484;4.658;2022-12-29T00:32:45;3.65;;;1.75;;
61638;SDS011;47544;52.484;4.658;2022-12-29T00:33:25;2.85;;;1.50;;
61638;SDS011;47544;52.484;4.658;2022-12-29T00:33:54;3.05;;;1.55;;
61638;SDS011;47544;52.484;4.658;2022-12-29T00:34:24;2.78;;;1.30;;
61638;SDS011;47544;52.484;4.658;2022-12-29T00:34:54;2.28;;;1.02;;
61638;SDS011;47544;52.484;4.658;2022-12-29T00:35:24;2.45;;;1.40;;
61638;SDS011;47544;52.484;4.658;2022-12-29T00:35:38;2.72;;;1.33;;
61638;SDS011;47544;52.484;4.658;2022-12-29T00:35:50;1.98;;;0.95;;
61638;SDS011;47544;52.484;4.658;2022-12-29T00:36:09;1.75;;;0.93;;
61638;SDS011;47544;52.484;4.658;2022-12-29T00:36:22;2.53;;;1.35;;
61638;SDS011;47544;52.484;4.658;2022-12-29T00:36:40;3.70;;;1.80;;
61638;SDS011;47544;52.484;4.658;2022-12-29T00:36:53;4.15;;;1.88;;
61638;SDS011;47544;52.484;4.658;2022-12-29T00:37:06;3.47;;;1.70;;
61638;SDS011;47544;52.484;4.658;2022-12-29T00:37:17;3.17;;;1.48;;
61638;SDS011;47544;52.484;4.658;2022-12-29T00:37:51;3.58;;;1.50;;
61638;SDS011;47544;52.484;4.658;2022-12-29T00:38:21;4.25;;;1.75;;
61638;SDS011;47544;52.484;4.658;2022-12-29T00:38:55;4.10;;;1.85;;
61638;SDS011;47544;52.484;4.658;2022-12-29T00:39:28;2.75;;;1.23;;
61638;SDS011;47544;52.484;4.658;2022-12-29T00:39:59;4.15;;;1.65;;
61638;SDS011;47544;52.484;4.658;2022-12-29T00:40:30;2.53;;;1.25;;
61638;SDS011;47544;52.484;4.658;2022-12-29T00:41:00;3.35;;;1.60;;
61638;SDS011;47544;52.484;4.658;2022-12-29T00:41:30;2.85;;;1.20;;
61638;SDS011;47544;52.484;4.658;2022-12-29T00:42:08;4.45;;;1.98;;
61638;SDS011;47544;52.484;4.658;2022-12-29T00:42:45;3.40;;;1.65;;
61638;SDS011;47544;52.484;4.658;2022-12-29T00:43:21;3.30;;;1.67;;
61638;SDS011;47544;52.484;4.658;2022-12-29T00:43:51;4.10;;;2.00;;
61638;SDS011;47544;52.484;4.658;2022-12-29T00:44:20;3.30;;;1.52;;
61638;SDS011;47544;52.484;4.658;2022-12-29T00:44:31;3.70;;;1.50;;
61638;SDS011;47544;52.484;4.658;2022-12-29T00:44:42;3.72;;;1.40;;
61638;SDS011;47544;52.484;4.658;2022-12-29T00:44:53;3.17;;;1.20;;
61638;SDS011;47544;52.484;4.658;2022-12-29T00:45:04;3.17;;;1.15;;
61638;SDS011;47544;52.484;4.658;2022-12-29T00:45:15;3.75;;;1.40;;
61638;SDS011;47544;52.484;4.658;2022-12-29T00:45:26;2.80;;;1.47;;
61638;SDS011;47544;52.484;4.658;2022-12-29T00:45:39;2.30;;;1.40;;
61638;SDS011;47544;52.484;4.658;2022-12-29T00:45:50;2.25;;;1.52;;
61638;SDS011;47544;52.484;4.658;2022-12-29T00:46:02;3.10;;;1.67;;
61638;SDS011;47544;52.484;4.658;2022-12-29T00:46:13;3.88;;;1.75;;
61638;SDS011;47544;52.484;4.658;2022-12-29T00:46:24;4.18;;;1.90;;
61638;SDS011;47544;52.484;4.658;2022-12-29T00:46:35;3.90;;;1.80;;
61638;SDS011;47544;52.484;4.658;2022-12-29T00:46:46;3.03;;;1.70;;
61638;SDS011;47544;52.484;4.658;2022-12-29T00:47:01;3.65;;;1.77;;
61638;SDS011;47544;52.484;4.658;2022-12-29T00:47:14;4.10;;;1.85;;
61638;SDS011;47544;52.484;4.658;2022-12-29T00:47:25;4.05;;;1.80;;
61638;SDS011;47544;52.484;4.658;2022-12-29T00:47:40;3.63;;;1.38;;
61638;SDS011;47544;52.484;4.658;2022-12-29T00:47:53;3.30;;;1.10;;
61638;SDS011;47544;52.484;4.658;2022-12-29T00:48:04;2.83;;;1.27;;
61638;SDS011;47544;52.484;4.658;2022-12-29T00:48:15;2.67;;;1.50;;
61638;SDS011;47544;52.484;4.658;2022-12-29T00:48:47;3.95;;;2.10;;
61638;SDS011;47544;52.484;4.658;2022-12-29T00:49:17;3.08;;;1.70;;
61638;SDS011;47544;52.484;4.658;2022-12-29T00:49:43;3.33;;;1.40;;
61638;SDS011;47544;52.484;4.658;2022-12-29T00:49:54;3.50;;;1.50;;
61638;SDS011;47544;52.484;4.658;2022-12-29T00:50:05;3.47;;;1.50;;
61638;SDS011;47544;52.484;4.658;2022-12-29T00:50:16;3.53;;;1.70;;
61638;SDS011;47544;52.484;4.658;2022-12-29T00:50:27;3.95;;;1.80;;
61638;SDS011;47544;52.484;4.658;2022-12-29T00:50:41;4.15;;;1.75;;
61638;SDS011;47544;52.484;4.658;2022-12-29T00:50:55;3.60;;;1.77;;
61638;SDS011;47544;52.484;4.658;2022-12-29T00:51:09;3.28;;;1.88;;
61638;SDS011;47544;52.484;4.658;2022-12-29T00:51:20;3.13;;;1.77;;
61638;SDS011;47544;52.484;4.658;2022-12-29T00:51:34;3.47;;;1.75;;
61638;SDS011;47544;52.484;4.658;2022-12-29T00:51:47;4.00;;;1.88;;
61638;SDS011;47544;52.484;4.658;2022-12-29T00:52:02;3.75;;;2.00;;
61638;SDS011;47544;52.484;4.658;2022-12-29T00:52:13;3.92;;;2.00;;
61638;SDS011;47544;52.484;4.658;2022-12-29T00:52:25;4.03;;;1.98;;
61638;SDS011;47544;52.484;4.658;2022-12-29T00:52:36;3.67;;;1.90;;
61638;SDS011;47544;52.484;4.658;2022-12-29T00:52:47;3.53;;;1.90;;
61638;SDS011;47544;52.484;4.658;2022-12-29T00:52:58;3.37;;;1.63;;
61638;SDS011;47544;52.484;4.658;2022-12-29T00:53:09;3.42;;;1.63;;
61638;SDS011;47544;52.484;4.658;2022-12-29T00:53:20;3.47;;;1.55;;
61638;SDS011;47544;52.484;4.658;2022-12-29T00:53:39;3.53;;;1.88;;
61638;SDS011;47544;52.484;4.658;2022-12-29T00:54:05;3.88;;;1.42;;
61638;SDS011;47544;52.484;4.658;2022-12-29T00:54:19;3.65;;;1.52;;
61638;SDS011;47544;52.484;4.658;2022-12-29T00:54:31;3.20;;;1.52;;
61638;SDS011;47544;52.484;4.658;2022-12-29T00:54:42;3.42;;;1.38;;
61638;SDS011;47544;52.484;4.658;2022-12-29T00:54:55;3.47;;;1.40;;
61638;SDS011;47544;52.484;4.658;2022-12-29T00:55:09;4.13;;;1.75;;
61638;SDS011;47544;52.484;4.658;2022-12-29T00:55:20;4.03;;;1.52;;
61638;SDS011;47544;52.484;4.658;2022-12-29T00:55:31;3.35;;;1.30;;
61638;SDS011;47544;52.484;4.658;2022-12-29T00:55:46;2.28;;;1.02;;
61638;SDS011;47544;52.484;4.658;2022-12-29T00:55:57;2.25;;;0.90;;
61638;SDS011;47544;52.484;4.658;2022-12-29T00:56:08;2.00;;;0.75;;
61638;SDS011;47544;52.484;4.658;2022-12-29T00:56:21;2.28;;;1.08;;
61638;SDS011;47544;52.484;4.658;2022-12-29T00:56:35;2.47;;;1.15;;
61638;SDS011;47544;52.484;4.658;2022-12-29T00:56:47;2.97;;;1.15;;
61638;SDS011;47544;52.484;4.658;2022-12-29T00:56:58;2.58;;;0.90;;
61638;SDS011;47544;52.484;4.658;2022-12-29T00:57:09;2.13;;;0.82;;
61638;SDS011;47544;52.484;4.658;2022-12-29T00:57:20;2.05;;;0.95;;
61638;SDS011;47544;52.484;4.658;2022-12-29T00:57:32;2.60;;;1.17;;
61638;SDS011;47544;52.484;4.658;2022-12-29T00:57:45;2.60;;;1.17;;
61638;SDS011;47544;52.484;4.658;2022-12-29T00:57:56;3.10;;;1.30;;
61638;SDS011;47544;52.484;4.658;2022-12-29T00:58:07;2.85;;;1.35;;
61638;SDS011;47544;52.484;4.658;2022-12-29T00:58:18;3.35;;;1.55;;
61638;SDS011;47544;52.484;4.658;2022-12-29T00:58:29;3.67;;;1.73;;
61638;SDS011;47544;52.484;4.658;2022-12-29T00:58:41;3.20;;;1.60;;
61638;SDS011;47544;52.484;4.658;2022-12-29T00:58:52;2.97;;;1.38;;
61638;SDS011;47544;52.484;4.658;2022-12-29T00:59:04;2.75;;;1.27;;
61638;SDS011;47544;52.484;4.658;2022-12-29T00:59:15;3.33;;;1.30;;
61638;SDS011;47544;52.484;4.658;2022-12-29T00:59:27;3.13;;;1.23;;
61638;SDS011;47544;52.484;4.658;2022-12-29T00:59:41;2.42;;;1.10;;
61638;SDS011;47544;52.484;4.658;2022-12-29T01:00:00;2.33;;;1.10;;
61638;SDS011;47544;52.484;4.658;2022-12-29T01:00:12;2.65;;;1.13;;
61638;SDS011;47544;52.484;4.658;2022-12-29T01:00:23;2.90;;;1.35;;
61638;SDS011;47544;52.484;4.658;2022-12-29T01:00:35;2.75;;;1.23;;
61638;SDS011;47544;52.484;4.658;2022-12-29T01:00:46;2.17;;;0.93;;
61638;SDS011;47544;52.484;4.658;2022-12-29T01:01:00;2.28;;;0.90;;
61638;SDS011;47544;52.484;4.658;2022-12-29T01:01:12;2.30;;;0.90;;
61638;SDS011;47544;52.484;4.658;2022-12-29T01:01:23;3.00;;;0.98;;
61638;SDS011;47544;52.484;4.658;2022-12-29T01:01:34;3.20;;;1.10;;
61638;SDS011;47544;52.484;4.658;2022-12-29T01:01:46;3.45;;;1.40;;
61638;SDS011;47544;52.484;4.658;2022-12-29T01:01:57;3.15;;;1.30;;
61638;SDS011;47544;52.484;4.658;2022-12-29T01:02:09;3.72;;;1.27;;
61638;SDS011;47544;52.484;4.658;2022-12-29T01:02:21;3.33;;;1.35;;
61638;SDS011;47544;52.484;4.658;2022-12-29T01:02:32;2.97;;;1.35;;
61638;SDS011;47544;52.484;4.658;2022-12-29T01:02:43;3.63;;;1.40;;
61638;SDS011;47544;52.484;4.658;2022-12-29T01:02:54;3.03;;;1.10;;
61638;SDS011;47544;52.484;4.658;2022-12-29T01:03:06;3.13;;;1.00;;
61638;SDS011;47544;52.484;4.658;2022-12-29T01:03:18;2.70;;;0.88;;
61638;SDS011;47544;52.484;4.658;2022-12-29T01:03:29;2.75;;;1.00;;
61638;SDS011;47544;52.484;4.658;2022-12-29T01:03:40;2.30;;;1.02;;
61638;SDS011;47544;52.484;4.658;2022-12-29T01:03:52;3.05;;;1.08;;
61638;SDS011;47544;52.484;4.658;2022-12-29T01:04:06;3.10;;;1.05;;
61638;SDS011;47544;52.484;4.658;2022-12-29T01:04:17;3.17;;;1.30;;
61638;SDS011;47544;52.484;4.658;2022-12-29T01:04:28;3.05;;;1.20;;
61638;SDS011;47544;52.484;4.658;2022-12-29T01:04:39;2.38;;;1.08;;
61638;SDS011;47544;52.484;4.658;2022-12-29T01:04:51;2.45;;;0.93;;
61638;SDS011;47544;52.484;4.658;2022-12-29T01:05:02;3.10;;;1.20;;
61638;SDS011;47544;52.484;4.658;2022-12-29T01:05:13;3.60;;;1.42;;
61638;SDS011;47544;52.484;4.658;2022-12-29T01:05:24;3.63;;;1.57;;
61638;SDS011;47544;52.484;4.658;2022-12-29T01:05:35;3.20;;;1.30;;
61638;SDS011;47544;52.484;4.658;2022-12-29T01:05:47;2.65;;;1.15;;
61638;SDS011;47544;52.484;4.658;2022-12-29T01:05:59;2.28;;;1.00;;
61638;SDS011;47544;52.484;4.658;2022-12-29T01:06:11;2.97;;;1.17;;
61638;SDS011;47544;52.484;4.658;2022-12-29T01:06:22;2.97;;;1.10;;
61638;SDS011;47544;52.484;4.658;2022-12-29T01:06:38;3.13;;;0.98;;
61638;SDS011;47544;52.484;4.658;2022-12-29T01:06:52;2.38;;;0.90;;
61638;SDS011;47544;52.484;4.658;2022-12-29T01:07:03;2.42;;;0.85;;
61638;SDS011;47544;52.484;4.658;2022-12-29T01:07:14;3.15;;;1.05;;
61638;SDS011;47544;52.484;4.658;2022-12-29T01:07:25;3.03;;;1.10;;
61638;SDS011;47544;52.484;4.658;2022-12-29T01:07:36;2.58;;;1.00;;
61638;SDS011;47544;52.484;4.658;2022-12-29T01:07:47;2.53;;;1.00;;
61638;SDS011;47544;52.484;4.658;2022-12-29T01:08:00;2.95;;;1.15;;
61638;SDS011;47544;52.484;4.658;2022-12-29T01:08:11;3.58;;;1.45;;
61638;SDS011;47544;52.484;4.658;2022-12-29T01:08:22;3.45;;;1.30;;
61638;SDS011;47544;52.484;4.658;2022-12-29T01:08:33;3.17;;;1.40;;
61638;SDS011;47544;52.484;4.658;2022-12-29T01:08:45;2.92;;;1.30;;
61638;SDS011;47544;52.484;4.658;2022-12-29T01:08:57;3.47;;;1.40;;
61638;SDS011;47544;52.484;4.658;2022-12-29T01:09:27;2.85;;;1.25;;
61638;SDS011;47544;52.484;4.658;2022-12-29T01:09:56;2.38;;;1.15;;
61638;SDS011;47544;52.484;4.658;2022-12-29T01:10:22;2.60;;;1.10;;
61638;SDS011;47544;52.484;4.658;2022-12-29T01:10:33;2.97;;;1.20;;
61638;SDS011;47544;52.484;4.658;2022-12-29T01:10:44;3.10;;;1.23;;
61638;SDS011;47544;52.484;4.658;2022-12-29T01:10:58;2.97;;;1.20;;
61638;SDS011;47544;52.484;4.658;2022-12-29T01:11:10;2.88;;;1.00;;
61638;SDS011;47544;52.484;4.658;2022-12-29T01:11:24;2.35;;;0.85;;
61638;SDS011;47544;52.484;4.658;2022-12-29T01:11:35;2.28;;;0.95;;
61638;SDS011;47544;52.484;4.658;2022-12-29T01:11:46;3.10;;;1.10;;
61638;SDS011;47544;52.484;4.658;2022-12-29T01:11:57;2.90;;;1.00;;
61638;SDS011;47544;52.484;4.658;2022-12-29T01:12:09;3.53;;;0.95;;
61638;SDS011;47544;52.484;4.658;2022-12-29T01:12:20;3.30;;;0.88;;
61638;SDS011;47544;52.484;4.658;2022-12-29T01:12:52;2.63;;;0.93;;
61638;SDS011;47544;52.484;4.658;2022-12-29T01:13:03;2.55;;;1.00;;
61638;SDS011;47544;52.484;4.658;2022-12-29T01:13:14;2.53;;;1.02;;
61638;SDS011;47544;52.484;4.658;2022-12-29T01:13:25;2.42;;;1.00;;
61638;SDS011;47544;52.484;4.658;2022-12-29T01:13:36;1.95;;;0.90;;
61638;SDS011;47544;52.484;4.658;2022-12-29T01:13:51;2.83;;;1.00;;
61638;SDS011;47544;52.484;4.658;2022-12-29T01:14:02;3.20;;;1.02;;
61638;SDS011;47544;52.484;4.658;2022-12-29T01:14:21;2.85;;;1.00;;
61638;SDS011;47544;52.484;4.658;2022-12-29T01:14:33;2.88;;;0.90;;
61638;SDS011;47544;52.484;4.658;2022-12-29T01:14:44;2.33;;;0.80;;
61638;SDS011;47544;52.484;4.658;2022-12-29T01:14:55;2.75;;;0.77;;
61638;SDS011;47544;52.484;4.658;2022-12-29T01:15:08;2.30;;;0.80;;
61638;SDS011;47544;52.484;4.658;2022-12-29T01:15:23;2.63;;;0.75;;
61638;SDS011;47544;52.484;4.658;2022-12-29T01:15:34;2.17;;;0.75;;
61638;SDS011;47544;52.484;4.658;2022-12-29T01:15:49;2.42;;;0.95;;
61638;SDS011;47544;52.484;4.658;2022-12-29T01:16:02;2.90;;;1.00;;
61638;SDS011;47544;52.484;4.658;2022-12-29T01:16:13;2.75;;;1.00;;
61638;SDS011;47544;52.484;4.658;2022-12-29T01:16:26;2.47;;;0.90;;
61638;SDS011;47544;52.484;4.658;2022-12-29T01:16:37;2.20;;;0.85;;
61638;SDS011;47544;52.484;4.658;2022-12-29T01:16:48;2.00;;;0.80;;
61638;SDS011;47544;52.484;4.658;2022-12-29T01:17:00;2.35;;;0.80;;
61638;SDS011;47544;52.484;4.658;2022-12-29T01:17:11;2.47;;;0.80;;
61638;SDS011;47544;52.484;4.658;2022-12-29T01:17:22;2.47;;;0.82;;
61638;SDS011;47544;52.484;4.658;2022-12-29T01:17:34;2.90;;;0.90;;
61638;SDS011;47544;52.484;4.658;2022-12-29T01:17:46;2.53;;;0.75;;
61638;SDS011;47544;52.484;4.658;2022-12-29T01:17:57;2.70;;;0.80;;
61638;SDS011;47544;52.484;4.658;2022-12-29T01:18:08;2.92;;;0.90;;
61638;SDS011;47544;52.484;4.658;2022-12-29T01:18:19;2.70;;;1.00;;
61638;SDS011;47544;52.484;4.658;2022-12-29T01:18:36;2.60;;;0.98;;
61638;SDS011;47544;52.484;4.658;2022-12-29T01:18:50;1.90;;;0.77;;
61638;SDS011;47544;52.484;4.658;2022-12-29T01:19:01;1.85;;;0.73;;
61638;SDS011;47544;52.484;4.658;2022-12-29T01:19:12;1.50;;;0.60;;
61638;SDS011;47544;52.484;4.658;2022-12-29T01:19:25;1.63;;;0.70;;
61638;SDS011;47544;52.484;4.658;2022-12-29T01:19:36;1.77;;;0.80;;
61638;SDS011;47544;52.484;4.658;2022-12-29T01:19:49;1.85;;;0.82;;
61638;SDS011;47544;52.484;4.658;2022-12-29T01:20:01;1.70;;;0.70;;
61638;SDS011;47544;52.484;4.658;2022-12-29T01:20:13;1.83;;;0.80;;
61638;SDS011;47544;52.484;4.658;2022-12-29T01:20:25;1.95;;;0.75;;
61638;SDS011;47544;52.484;4.658;2022-12-29T01:20:39;2.13;;;0.85;;
61638;SDS011;47544;52.484;4.658;2022-12-29T01:20:50;2.75;;;1.00;;
61638;SDS011;47544;52.484;4.658;2022-12-29T01:21:02;3.00;;;0.98;;
61638;SDS011;47544;52.484;4.658;2022-12-29T01:21:13;4.45;;;1.13;;
61638;SDS011;47544;52.484;4.658;2022-12-29T01:21:25;3.55;;;0.93;;
61638;SDS011;47544;52.484;4.658;2022-12-29T01:21:36;3.25;;;0.90;;
61638;SDS011;47544;52.484;4.658;2022-12-29T01:21:48;3.47;;;0.88;;
61638;SDS011;47544;52.484;4.658;2022-12-29T01:21:59;3.10;;;0.80;;
61638;SDS011;47544;52.484;4.658;2022-12-29T01:22:10;1.90;;;0.80;;
61638;SDS011;47544;52.484;4.658;2022-12-29T01:22:21;2.13;;;0.80;;
61638;SDS011;47544;52.484;4.658;2022-12-29T01:22:32;2.10;;;0.82;;
61638;SDS011;47544;52.484;4.658;2022-12-29T01:22:43;1.60;;;0.77;;
61638;SDS011;47544;52.484;4.658;2022-12-29T01:22:54;1.52;;;0.70;;
61638;SDS011;47544;52.484;4.658;2022-12-29T01:23:05;2.30;;;0.70;;
61638;SDS011;47544;52.484;4.658;2022-12-29T01:23:17;2.17;;;0.70;;
61638;SDS011;47544;52.484;4.658;2022-12-29T01:23:28;2.75;;;0.80;;
61638;SDS011;47544;52.484;4.658;2022-12-29T01:23:39;2.50;;;0.70;;
61638;SDS011;47544;52.484;4.658;2022-12-29T01:23:50;2.75;;;0.73;;
61638;SDS011;47544;52.484;4.658;2022-12-29T01:24:02;2.10;;;0.70;;
61638;SDS011;47544;52.484;4.658;2022-12-29T01:24:13;1.85;;;0.80;;
61638;SDS011;47544;52.484;4.658;2022-12-29T01:24:27;2.35;;;0.90;;
61638;SDS011;47544;52.484;4.658;2022-12-29T01:24:39;2.55;;;0.82;;
61638;SDS011;47544;52.484;4.658;2022-12-29T01:24:50;2.65;;;0.90;;
61638;SDS011;47544;52.484;4.658;2022-12-29T01:25:01;2.13;;;0.80;;
61638;SDS011;47544;52.484;4.658;2022-12-29T01:25:12;2.50;;;0.80;;
61638;SDS011;47544;52.484;4.658;2022-12-29T01:25:23;2.10;;;0.70;;
61638;SDS011;47544;52.484;4.658;2022-12-29T01:25:34;2.85;;;0.82;;
61638;SDS011;47544;52.484;4.658;2022-12-29T01:25:45;3.03;;;0.93;;
61638;SDS011;47544;52.484;4.658;2022-12-29T01:25:56;3.10;;;0.93;;
61638;SDS011;47544;52.484;4.658;2022-12-29T01:26:08;3.50;;;0.82;;
61638;SDS011;47544;52.484;4.658;2022-12-29T01:26:19;2.70;;;0.70;;
61638;SDS011;47544;52.484;4.658;2022-12-29T01:26:30;2.67;;;0.80;;
61638;SDS011;47544;52.484;4.658;2022-12-29T01:26:42;1.73;;;0.80;;
61638;SDS011;47544;52.484;4.658;2022-12-29T01:26:53;2.30;;;0.88;;
61638;SDS011;47544;52.484;4.658;2022-12-29T01:27:05;2.83;;;0.77;;
61638;SDS011;47544;52.484;4.658;2022-12-29T01:27:16;3.05;;;0.75;;
61638;SDS011;47544;52.484;4.658;2022-12-29T01:27:28;2.60;;;0.80;;
61638;SDS011;47544;52.484;4.658;2022-12-29T01:27:38;1.98;;;0.80;;
61638;SDS011;47544;52.484;4.658;2022-12-29T01:27:49;1.98;;;0.70;;
61638;SDS011;47544;52.484;4.658;2022-12-29T01:28:02;2.10;;;0.82;;
61638;SDS011;47544;52.484;4.658;2022-12-29T01:28:13;1.92;;;0.80;;
61638;SDS011;47544;52.484;4.658;2022-12-29T01:28:24;2.10;;;0.80;;
61638;SDS011;47544;52.484;4.658;2022-12-29T01:28:35;2.60;;;0.88;;
61638;SDS011;47544;52.484;4.658;2022-12-29T01:28:46;2.70;;;0.88;;
61638;SDS011;47544;52.484;4.658;2022-12-29T01:28:57;2.22;;;0.80;;
61638;SDS011;47544;52.484;4.658;2022-12-29T01:29:09;1.75;;;0.70;;
61638;SDS011;47544;52.484;4.658;2022-12-29T01:29:22;2.13;;;0.80;;
61638;SDS011;47544;52.484;4.658;2022-12-29T01:29:33;2.13;;;0.75;;
61638;SDS011;47544;52.484;4.658;2022-12-29T01:29:44;2.13;;;0.80;;
61638;SDS011;47544;52.484;4.658;2022-12-29T01:29:56;2.20;;;0.85;;
61638;SDS011;47544;52.484;4.658;2022-12-29T01:30:08;2.35;;;1.00;;
61638;SDS011;47544;52.484;4.658;2022-12-29T01:30:19;2.47;;;0.85;;
61638;SDS011;47544;52.484;4.658;2022-12-29T01:30:32;2.28;;;0.77;;
61638;SDS011;47544;52.484;4.658;2022-12-29T01:30:46;3.53;;;0.85;;
61638;SDS011;47544;52.484;4.658;2022-12-29T01:30:59;4.07;;;1.00;;
61638;SDS011;47544;52.484;4.658;2022-12-29T01:31:15;2.95;;;0.85;;
61638;SDS011;47544;52.484;4.658;2022-12-29T01:31:26;2.22;;;0.70;;
61638;SDS011;47544;52.484;4.658;2022-12-29T01:31:38;2.55;;;0.80;;
61638;SDS011;47544;52.484;4.658;2022-12-29T01:31:49;2.10;;;0.75;;
61638;SDS011;47544;52.484;4.658;2022-12-29T01:32:01;2.05;;;0.80;;
61638;SDS011;47544;52.484;4.658;2022-12-29T01:32:12;2.20;;;0.90;;
61638;SDS011;47544;52.484;4.658;2022-12-29T01:32:23;2.25;;;0.90;;
61638;SDS011;47544;52.484;4.658;2022-12-29T01:32:37;2.80;;;0.80;;
61638;SDS011;47544;52.484;4.658;2022-12-29T01:32:48;3.20;;;1.00;;
61638;SDS011;47544;52.484;4.658;2022-12-29T01:33:00;2.17;;;0.90;;
61638;SDS011;47544;52.484;4.658;2022-12-29T01:33:11;3.33;;;1.08;;
61638;SDS011;47544;52.484;4.658;2022-12-29T01:33:22;3.00;;;0.90;;
61638;SDS011;47544;52.484;4.658;2022-12-29T01:33:34;2.80;;;0.90;;
61638;SDS011;47544;52.484;4.658;2022-12-29T01:33:48;2.30;;;0.82;;
61638;SDS011;47544;52.484;4.658;2022-12-29T01:33:59;2.53;;;0.90;;
61638;SDS011;47544;52.484;4.658;2022-12-29T01:34:10;2.83;;;0.85;;
61638;SDS011;47544;52.484;4.658;2022-12-29T01:34:21;2.95;;;1.00;;
61638;SDS011;47544;52.484;4.658;2022-12-29T01:34:33;2.03;;;1.00;;
61638;SDS011;47544;52.484;4.658;2022-12-29T01:34:45;2.40;;;0.90;;
61638;SDS011;47544;52.484;4.658;2022-12-29T01:34:56;2.38;;;0.80;;
61638;SDS011;47544;52.484;4.658;2022-12-29T01:35:08;3.35;;;1.02;;
61638;SDS011;47544;52.484;4.658;2022-12-29T01:35:19;3.58;;;0.90;;
61638;SDS011;47544;52.484;4.658;2022-12-29T01:35:31;4.07;;;0.88;;
61638;SDS011;47544;52.484;4.658;2022-12-29T01:35:42;3.88;;;0.80;;
61638;SDS011;47544;52.484;4.658;2022-12-29T01:35:53;3.58;;;0.95;;
61638;SDS011;47544;52.484;4.658;2022-12-29T01:36:05;3.40;;;1.00;;
61638;SDS011;47544;52.484;4.658;2022-12-29T01:36:18;3.03;;;1.10;;
61638;SDS011;47544;52.484;4.658;2022-12-29T01:36:29;2.20;;;0.98;;
61638;SDS011;47544;52.484;4.658;2022-12-29T01:36:41;2.50;;;0.90;;
61638;SDS011;47544;52.484;4.658;2022-12-29T01:36:55;2.92;;;1.10;;